.
WxDataArchive / Data Records for 2011-03-11
2011-03-10 March 2011 2011-03-12

Data Records for Friday, 11 March 2011

Time	Temp	Chill	HIndex	Humid	Dewpt	 Wind 	HiWind	WindDir	Rain 	Barom 
-----	----	-----	------	-----	-----	------	------	-------	-----	----- 
00:00	33.5	33.5	33.5	75	26.4	3	6	270	0.00	29.954 
00:05	33.5	33.5	33.5	75	26.4	2	5	292	0.00	29.954 
00:10	33.5	33.5	33.5	76	26.8	3	5	270	0.00	29.954 
00:15	33.4	33.4	33.4	76	26.7	3	6	338	0.00	29.955 
00:20	33.4	33.4	33.4	77	27.0	2	10	270	0.00	29.955 
00:25	33.2	33.2	33.2	77	26.8	3	10	338	0.00	29.955 
00:30	33.2	33.2	33.2	77	26.8	3	7	270	0.00	29.953 
00:35	33.2	33.2	33.2	77	26.8	3	6	292	0.00	29.953 
00:40	33.2	33.2	33.2	77	26.8	3	7	292	0.00	29.953 
00:45	33.2	33.2	33.2	77	26.8	3	7	315	0.00	29.948 
00:50	33.1	33.1	33.1	77	26.7	3	6	270	0.00	29.948 
00:55	33.1	33.1	33.1	78	27.0	3	9	270	0.00	29.948 
01:00	33.1	33.1	33.1	78	27.0	2	5	270	0.00	29.945 
01:05	33.1	33.1	33.1	78	27.0	3	7	315	0.00	29.945 
01:10	32.9	32.9	32.9	79	27.1	3	7	270	0.00	29.945 
01:15	32.9	32.9	32.9	79	27.1	2	5	270	0.00	29.948 
01:20	32.9	32.9	32.9	79	27.1	3	5	248	0.00	29.948 
01:25	32.9	32.9	32.9	79	27.1	3	6	270	0.00	29.948 
01:30	32.9	32.9	32.9	80	27.4	2	6	248	0.00	29.951 
01:35	32.9	32.9	32.9	80	27.4	3	9	248	0.00	29.951 
01:40	32.9	32.9	32.9	80	27.4	2	6	248	0.00	29.951 
01:45	32.9	32.9	32.9	80	27.4	2	5	315	0.00	29.950 
01:50	32.9	32.9	32.9	80	27.4	2	5	315	0.00	29.950 
01:55	32.9	32.9	32.9	80	27.4	2	6	270	0.00	29.950 
02:00	32.9	32.9	32.9	80	27.4	3	6	270	0.00	29.944 
02:05	32.9	32.9	32.9	80	27.4	2	5	338	0.00	29.944 
02:10	32.8	32.8	32.8	80	27.3	3	7	270	0.00	29.944 
02:15	32.9	32.9	32.9	80	27.4	3	9	270	0.00	29.941 
02:20	32.9	32.9	32.9	80	27.4	3	7	270	0.00	29.941 
02:25	32.9	32.9	32.9	80	27.4	2	3	248	0.00	29.941 
02:30	32.9	32.9	32.9	81	27.7	2	6	270	0.00	29.939 
02:35	32.8	32.8	32.8	81	27.6	2	6	270	0.00	29.939 
02:40	32.8	32.8	32.8	81	27.6	2	6	315	0.00	29.939 
02:45	32.8	32.8	32.8	81	27.6	3	6	270	0.00	29.937 
02:50	32.8	32.8	32.8	81	27.6	2	7	248	0.00	29.937 
02:55	32.8	32.8	32.8	81	27.6	2	8	315	0.00	29.937 
03:00	32.8	32.8	32.8	81	27.6	2	5	315	0.00	29.929 
03:05	32.8	32.8	32.8	81	27.6	3	6	338	0.00	29.929 
03:10	32.7	32.7	32.7	81	27.5	3	10	270	0.00	29.929 
03:15	32.7	32.7	32.7	80	27.2	3	6	292	0.00	29.926 
03:20	32.7	32.7	32.7	80	27.2	2	5	292	0.00	29.926 
03:25	32.7	32.7	32.7	80	27.2	3	7	270	0.00	29.926 
03:30	32.7	32.7	32.7	80	27.2	3	7	315	0.00	29.927 
03:35	32.7	32.7	32.7	80	27.2	3	7	270	0.00	29.927 
03:40	32.7	32.7	32.7	79	26.9	3	7	270	0.00	29.927 
03:45	32.7	32.7	32.7	79	26.9	3	6	270	0.00	29.924 
03:50	32.5	32.5	32.5	77	26.1	3	14	292	0.00	29.924 
03:55	32.5	32.5	32.5	75	25.5	3	14	292	0.00	29.924 
04:00	32.5	28.7	32.5	74	25.2	4	9	292	0.00	29.923 
04:05	32.5	32.5	32.5	74	25.2	3	7	270	0.00	29.923 
04:10	32.5	32.5	32.5	74	25.2	2	6	270	0.00	29.923 
04:15	32.5	27.7	32.5	73	24.8	5	11	270	0.00	29.926 
04:20	32.5	27.7	32.5	72	24.5	5	12	270	0.00	29.926 
04:25	32.4	32.4	32.4	72	24.4	3	9	292	0.00	29.926 
04:30	32.4	28.5	32.4	72	24.4	4	10	315	0.00	29.931 
04:35	32.4	28.5	32.4	72	24.4	4	11	315	0.00	29.931 
04:40	32.4	32.4	32.4	72	24.4	3	10	315	0.00	29.931 
04:45	32.4	28.5	32.4	71	24.1	4	11	315	0.00	29.930 
04:50	32.4	28.5	32.4	71	24.1	4	12	315	0.00	29.930 
04:55	32.4	32.4	32.4	72	24.4	3	10	292	0.00	29.930 
05:00	32.4	27.5	32.4	72	24.4	5	11	315	0.00	29.936 
05:05	32.4	32.4	32.4	72	24.4	3	9	315	0.00	29.936 
05:10	32.4	32.4	32.4	73	24.7	3	6	315	0.00	29.936 
05:15	32.4	32.4	32.4	73	24.7	3	6	270	0.00	29.941 
05:20	32.4	32.4	32.4	74	25.1	2	5	315	0.00	29.941 
05:25	32.4	32.4	32.4	75	25.4	2	4	315	0.00	29.941 
05:30	32.4	32.4	32.4	75	25.4	3	6	248	0.00	29.943 
05:35	32.4	32.4	32.4	75	25.4	3	6	315	0.00	29.943 
05:40	32.2	32.2	32.2	74	24.9	3	9	315	0.00	29.943 
05:45	32.2	32.2	32.2	73	24.5	3	10	292	0.00	29.943 
05:50	32.2	32.2	32.2	73	24.5	2	6	315	0.00	29.943 
05:55	32.2	32.2	32.2	73	24.5	3	7	292	0.00	29.943 
06:00	32.2	32.2	32.2	74	24.9	2	4	315	0.00	29.949 
06:05	32.2	32.2	32.2	74	24.9	2	3	270	0.00	29.949 
06:10	32.2	32.2	32.2	74	24.9	2	7	270	0.00	29.949 
06:15	32.2	32.2	32.2	74	24.9	3	8	338	0.00	29.957 
06:20	32.2	32.2	32.2	74	24.9	3	9	315	0.00	29.957 
06:25	32.2	32.2	32.2	74	24.9	3	7	315	0.00	29.957 
06:30	32.2	32.2	32.2	74	24.9	3	7	248	0.00	29.957 
06:35	32.2	32.2	32.2	74	24.9	2	6	338	0.00	29.957 
06:40	32.2	32.2	32.2	74	24.9	3	7	315	0.00	29.957 
06:45	32.2	28.3	32.2	73	24.5	4	11	338	0.00	29.958 
06:50	32.4	28.5	32.4	73	24.7	4	10	315	0.00	29.958 
06:55	32.4	32.4	32.4	73	24.7	3	10	338	0.00	29.958 
07:00	32.4	28.5	32.4	73	24.7	4	11	270	0.00	29.958 
07:05	32.4	32.4	32.4	74	25.1	3	7	315	0.00	29.958 
07:10	32.4	32.4	32.4	74	25.1	3	9	270	0.00	29.958 
07:15	32.4	32.4	32.4	74	25.1	2	5	315	0.00	29.964 
07:20	32.4	32.4	32.4	74	25.1	3	9	338	0.00	29.964 
07:25	32.4	32.4	32.4	74	25.1	2	4	270	0.00	29.964 
07:30	32.4	32.4	32.4	74	25.1	2	5	248	0.00	29.970 
07:35	32.4	32.4	32.4	75	25.4	2	6	338	0.00	29.970 
07:40	32.4	32.4	32.4	75	25.4	3	7	315	0.00	29.970 
07:45	32.4	32.4	32.4	75	25.4	2	6	248	0.00	29.971 
07:50	32.4	32.4	32.4	75	25.4	2	6	270	0.00	29.971 
07:55	32.4	32.4	32.4	75	25.4	3	6	292	0.00	29.971 
08:00	32.4	32.4	32.4	75	25.4	3	6	270	0.00	29.973 
08:05	32.4	32.4	32.4	76	25.7	3	6	315	0.00	29.973 
08:10	32.4	32.4	32.4	76	25.7	1	4	315	0.00	29.973 
08:15	32.4	32.4	32.4	76	25.7	2	5	315	0.00	29.976 
08:20	32.4	32.4	32.4	75	25.4	2	5	270	0.00	29.976 
08:25	32.5	32.5	32.5	75	25.5	2	6	292	0.00	29.976 
08:30	32.5	32.5	32.5	75	25.5	2	5	292	0.00	29.977 
08:35	32.7	32.7	32.7	75	25.7	3	5	270	0.00	29.977 
08:40	32.7	32.7	32.7	74	25.3	3	7	292	0.00	29.977 
08:45	32.8	32.8	32.8	74	25.4	2	6	338	0.00	29.980 
08:50	32.8	32.8	32.8	74	25.4	3	6	338	0.00	29.980 
08:55	32.9	32.9	32.9	74	25.5	3	5	270	0.00	29.980 
09:00	32.9	32.9	32.9	73	25.2	3	6	315	0.00	29.987 
09:05	33.1	33.1	33.1	73	25.4	2	10	292	0.00	29.987 
09:10	33.1	33.1	33.1	73	25.4	3	6	338	0.00	29.987 
09:15	33.1	33.1	33.1	73	25.4	3	6	270	0.00	29.989 
09:20	33.2	33.2	33.2	73	25.5	3	7	315	0.00	29.989 
09:25	33.2	33.2	33.2	72	25.2	3	5	338	0.00	29.989 
09:30	33.4	33.4	33.4	72	25.4	3	7	338	0.00	29.983 
09:35	33.5	33.5	33.5	73	25.8	3	5	338	0.00	29.983 
09:40	33.7	33.7	33.7	73	26.0	3	7	315	0.00	29.983 
09:45	33.7	33.7	33.7	72	25.7	3	7	315	0.00	29.988 
09:50	33.8	30.2	33.8	72	25.7	4	9	270	0.00	29.988 
09:55	33.8	33.8	33.8	71	25.4	3	6	315	0.00	29.988 
10:00	34.0	30.4	34.0	71	25.6	4	7	270	0.00	29.990 
10:05	34.0	30.4	34.0	71	25.6	4	8	315	0.00	29.990 
10:10	34.1	30.5	34.1	70	25.4	4	14	270	0.00	29.990 
10:15	34.4	34.4	34.4	71	26.0	3	7	292	0.00	29.989 
10:20	34.6	31.1	34.6	70	25.8	4	11	315	0.00	29.989 
10:25	34.7	31.2	34.7	70	25.9	4	10	315	0.00	29.989 
10:30	35.0	30.6	35.0	70	26.2	5	12	270	0.00	29.985 
10:35	35.9	35.9	35.9	69	26.7	3	9	270	0.00	29.985 
10:40	36.6	36.6	36.6	68	27.1	3	6	248	0.00	29.985 
10:45	36.6	33.4	36.6	67	26.7	4	12	270	0.00	29.987 
10:50	36.2	36.2	36.2	66	26.0	3	7	338	0.00	29.987 
10:55	36.0	32.7	36.0	66	25.8	4	11	315	0.00	29.987 
11:00	36.6	33.4	36.6	67	26.7	4	9	270	0.00	29.987 
11:05	36.6	33.4	36.6	65	26.0	4	10	292	0.00	29.987 
11:10	37.0	32.9	37.0	65	26.3	5	11	270	0.00	29.987 
11:15	37.6	34.5	37.6	64	26.5	4	9	270	0.00	29.992 
11:20	38.3	35.4	38.3	65	27.6	4	8	270	0.00	29.992 
11:25	38.2	33.6	38.2	63	26.7	6	10	270	0.00	29.992 
11:30	38.3	35.4	38.3	64	27.2	4	10	270	0.00	29.992 
11:35	38.8	35.9	38.8	65	28.1	4	8	270	0.00	29.992 
11:40	39.1	39.1	39.1	64	28.0	3	7	270	0.00	29.992 
11:45	38.8	38.8	38.8	62	26.9	3	10	315	0.00	29.987 
11:50	38.8	38.8	38.8	64	27.7	3	6	315	0.00	29.987 
11:55	39.2	36.4	39.2	64	28.1	4	12	270	0.00	29.987 
12:00	39.2	36.4	39.2	63	27.7	4	7	270	0.00	29.985 
12:05	39.5	39.5	39.5	62	27.6	3	6	315	0.00	29.985 
12:10	39.8	37.1	39.8	62	27.9	4	12	270	0.00	29.985 
12:15	39.9	39.9	39.9	64	28.7	3	7	248	0.00	29.984 
12:20	39.9	37.2	39.9	61	27.6	4	7	270	0.00	29.984 
12:25	39.9	36.4	39.9	62	28.0	5	10	270	0.00	29.984 
12:30	40.2	37.5	40.2	62	28.2	4	11	270	0.00	29.978 
12:35	40.3	36.8	40.3	60	27.5	5	10	270	0.00	29.978 
12:40	40.8	38.2	40.8	62	28.8	4	9	270	0.00	29.978 
12:45	41.5	39.1	41.5	61	29.1	4	7	270	0.00	29.969 
12:50	41.8	39.4	41.8	62	29.7	4	6	270	0.00	29.969 
12:55	42.2	42.2	42.2	60	29.3	3	8	270	0.00	29.969 
13:00	42.1	39.7	42.1	59	28.8	4	7	270	0.00	29.977 
13:05	42.2	39.9	42.2	59	28.9	4	9	270	0.00	29.977 
13:10	42.2	39.9	42.2	60	29.3	4	8	270	0.00	29.977 
13:15	42.3	39.2	42.3	58	28.6	5	10	270	0.00	29.968 
13:20	42.3	39.2	42.3	58	28.6	5	10	270	0.00	29.968 
13:25	42.9	40.7	42.9	61	30.4	4	13	270	0.00	29.968 
13:30	43.3	40.3	43.3	58	29.5	5	11	270	0.00	29.965 
13:35	43.2	40.2	43.2	57	29.0	5	11	270	0.00	29.965 
13:40	43.2	39.6	43.2	58	29.4	6	11	270	0.00	29.965 
13:45	43.2	40.2	43.2	59	29.9	5	10	270	0.00	29.966 
13:50	43.3	40.3	43.3	58	29.5	5	11	270	0.00	29.966 
13:55	43.3	41.1	43.3	56	28.7	4	9	292	0.00	29.966 
14:00	43.3	40.3	43.3	57	29.1	5	11	270	0.00	29.961 
14:05	43.2	40.2	43.2	56	28.6	5	10	270	0.00	29.961 
14:10	43.5	39.9	43.5	57	29.3	6	12	270	0.00	29.961 
14:15	43.9	41.8	43.9	58	30.1	4	9	270	0.00	29.958 
14:20	43.6	40.7	43.6	57	29.4	5	12	270	0.00	29.958 
14:25	43.8	41.7	43.8	57	29.6	4	9	270	0.00	29.958 
14:30	43.5	40.6	43.5	55	28.4	5	10	270	0.00	29.954 
14:35	43.8	41.7	43.8	55	28.7	4	9	270	0.00	29.954 
14:40	43.3	39.7	43.3	54	27.8	6	10	270	0.00	29.954 
14:45	43.6	40.7	43.6	55	28.5	5	10	270	0.00	29.950 
14:50	43.8	40.9	43.8	56	29.1	5	10	292	0.00	29.950 
14:55	44.1	41.3	44.1	55	29.0	5	9	270	0.00	29.950 
15:00	44.2	42.2	44.2	54	28.6	4	10	270	0.00	29.951 
15:05	44.3	41.5	44.3	54	28.7	5	9	270	0.00	29.951 
15:10	44.2	42.2	44.2	54	28.6	4	8	270	0.00	29.951 
15:15	44.5	41.8	44.5	51	27.5	5	9	270	0.00	29.954 
15:20	44.3	41.5	44.3	51	27.3	5	10	270	0.00	29.954 
15:25	44.6	42.6	44.6	55	29.4	4	7	270	0.00	29.954 
15:30	44.9	43.0	44.9	53	28.8	4	12	270	0.00	29.954 
15:35	44.9	43.0	44.9	50	27.4	4	8	270	0.00	29.954 
15:40	44.3	41.5	44.3	51	27.3	5	11	270	0.00	29.954 
15:45	44.3	41.5	44.3	51	27.3	5	11	270	0.00	29.959 
15:50	44.3	41.5	44.3	51	27.3	5	11	270	0.00	29.959 
15:55	44.2	42.2	44.2	51	27.2	4	10	292	0.00	29.959 
16:00	44.3	42.3	44.3	51	27.3	4	7	270	0.00	29.959 
16:05	44.2	42.2	44.2	49	26.3	4	9	292	0.00	29.959 
16:10	44.3	44.3	44.3	50	26.8	3	6	248	0.00	29.959 
16:15	44.8	42.9	44.8	50	27.3	4	7	270	0.00	29.958 
16:20	44.2	41.4	44.2	49	26.3	5	12	270	0.00	29.958 
16:25	44.1	42.1	44.1	50	26.7	4	8	270	0.00	29.958 
16:30	43.9	41.1	43.9	48	25.5	5	9	270	0.00	29.964 
16:35	43.9	41.8	43.9	47	25.0	4	7	270	0.00	29.964 
16:40	43.9	41.8	43.9	49	26.0	4	9	270	0.00	29.964 
16:45	43.9	41.1	43.9	50	26.5	5	8	270	0.00	29.965 
16:50	43.8	40.9	43.8	47	24.9	5	12	270	0.00	29.965 
16:55	43.8	41.7	43.8	47	24.9	4	7	270	0.00	29.965 
17:00	43.6	41.5	43.6	47	24.7	4	7	270	0.00	29.965 
17:05	43.2	41.0	43.2	47	24.3	4	8	270	0.00	29.965 
17:10	43.1	40.1	43.1	46	23.7	5	9	270	0.00	29.965 
17:15	43.1	40.9	43.1	46	23.7	4	8	270	0.00	29.969 
17:20	43.1	40.9	43.1	45	23.2	4	11	270	0.00	29.969 
17:25	42.9	40.7	42.9	45	23.0	4	9	270	0.00	29.969 
17:30	42.8	40.6	42.8	46	23.5	4	7	270	0.00	29.967 
17:35	42.6	42.6	42.6	44	22.2	3	7	270	0.00	29.967 
17:40	42.3	42.3	42.3	43	21.4	3	6	292	0.00	29.967 
17:45	42.1	42.1	42.1	43	21.2	3	7	270	0.00	29.967 
17:50	41.8	41.8	41.8	44	21.5	3	5	292	0.00	29.967 
17:55	41.6	41.6	41.6	45	21.9	2	5	248	0.00	29.967 
18:00	41.5	41.5	41.5	45	21.8	2	6	225	0.00	29.963 
18:05	41.3	41.3	41.3	44	21.0	2	4	270	0.00	29.963 
18:10	41.1	41.1	41.1	44	20.9	2	6	270	0.00	29.963 
18:15	41.1	41.1	41.1	44	20.9	3	4	270	0.00	29.968 
18:20	40.9	40.9	40.9	44	20.7	2	6	270	0.00	29.968 
18:25	40.8	40.8	40.8	44	20.6	2	5	315	0.00	29.968 
18:30	40.6	40.6	40.6	44	20.4	2	5	292	0.00	29.974 
18:35	40.5	40.5	40.5	45	20.8	2	4	270	0.00	29.974 
18:40	40.3	40.3	40.3	46	21.2	1	3	270	0.00	29.974 
18:45	40.2	40.2	40.2	46	21.1	2	5	270	0.00	29.979 
18:50	40.1	40.1	40.1	48	22.0	2	4	270	0.00	29.979 
18:55	39.8	39.8	39.8	48	21.7	2	4	315	0.00	29.979 
19:00	39.6	39.6	39.6	48	21.5	1	3	270	0.00	29.983 
19:05	39.5	39.5	39.5	49	21.9	1	3	270	0.00	29.983 
19:10	39.2	39.2	39.2	49	21.7	2	3	270	0.00	29.983 
19:15	39.1	39.1	39.1	49	21.6	1	2	270	0.00	29.984 
19:20	38.8	38.8	38.8	49	21.3	1	3	270	0.00	29.984 
19:25	38.6	38.6	38.6	50	21.6	0	1	270	0.00	29.984 
19:30	38.3	38.3	38.3	50	21.3	0	1	270	0.00	29.978 
19:35	38.0	38.0	38.0	50	21.0	0	0	---	0.00	29.978 
19:40	37.8	37.8	37.8	51	21.3	0	0	---	0.00	29.978 
19:45	37.5	37.5	37.5	51	21.0	0	0	---	0.00	29.977 
19:50	37.0	37.0	37.0	52	21.0	0	0	---	0.00	29.977 
19:55	36.8	36.8	36.8	52	20.8	0	0	---	0.00	29.977 
20:00	36.3	36.3	36.3	54	21.3	0	0	---	0.00	29.980 
20:05	35.9	35.9	35.9	55	21.3	0	0	---	0.00	29.980 
20:10	35.5	35.5	35.5	55	21.0	0	0	---	0.00	29.980 
20:15	35.2	35.2	35.2	57	21.5	0	0	---	0.00	29.980 
20:20	34.7	34.7	34.7	57	21.0	0	0	---	0.00	29.980 
20:25	34.4	34.4	34.4	58	21.2	0	0	---	0.00	29.980 
20:30	34.1	34.1	34.1	59	21.3	0	0	---	0.00	29.986 
20:35	33.7	33.7	33.7	60	21.3	0	0	---	0.00	29.986 
20:40	33.4	33.4	33.4	62	21.8	0	0	---	0.00	29.986 
20:45	32.9	32.9	32.9	63	21.7	0	0	---	0.00	29.981 
20:50	32.7	32.7	32.7	64	21.9	0	0	---	0.00	29.981 
20:55	32.4	32.4	32.4	66	22.3	0	0	---	0.00	29.981 
21:00	32.2	32.2	32.2	67	22.5	0	0	---	0.00	29.981 
21:05	32.1	32.1	32.1	67	22.4	0	0	---	0.00	29.981 
21:10	31.9	31.9	31.9	67	22.2	0	0	---	0.00	29.981 
21:15	31.8	31.8	31.8	68	22.5	0	0	---	0.00	29.975 
21:20	31.6	31.6	31.6	69	22.6	0	0	---	0.00	29.975 
21:25	31.5	31.5	31.5	70	22.9	0	0	---	0.00	29.975 
21:30	31.5	31.5	31.5	70	22.9	0	0	---	0.00	29.974 
21:35	31.5	31.5	31.5	70	22.9	0	0	---	0.00	29.974 
21:40	31.6	31.6	31.6	70	23.0	0	0	---	0.00	29.974 
21:45	31.8	31.8	31.8	70	23.2	0	0	---	0.00	29.969 
21:50	31.9	31.9	31.9	69	22.9	0	0	---	0.00	29.969 
21:55	31.9	31.9	31.9	69	22.9	0	0	---	0.00	29.969 
22:00	32.1	32.1	32.1	69	23.1	0	0	---	0.00	29.964 
22:05	32.4	32.4	32.4	69	23.4	0	0	---	0.00	29.964 
22:10	32.7	32.7	32.7	70	24.0	0	0	---	0.00	29.964 
22:15	32.9	32.9	32.9	70	24.2	0	0	---	0.00	29.955 
22:20	33.4	33.4	33.4	70	24.7	0	1	270	0.00	29.955 
22:25	33.7	33.7	33.7	70	25.0	0	0	---	0.00	29.955 
22:30	33.8	33.8	33.8	70	25.1	0	1	270	0.00	29.953 
22:35	34.0	34.0	34.0	70	25.3	0	1	270	0.00	29.953 
22:40	33.8	33.8	33.8	71	25.4	0	0	---	0.00	29.953 
22:45	34.0	34.0	34.0	71	25.6	0	0	---	0.00	29.953 
22:50	34.0	34.0	34.0	72	25.9	0	0	---	0.00	29.953 
22:55	34.0	34.0	34.0	73	26.3	0	0	---	0.00	29.953 
23:00	34.1	34.1	34.1	73	26.4	0	2	270	0.00	29.955 
23:05	34.4	34.4	34.4	73	26.7	0	1	270	0.00	29.955 
23:10	34.6	34.6	34.6	73	26.9	0	1	270	0.00	29.955 
23:15	34.7	34.7	34.7	73	26.9	0	1	270	0.00	29.959 
23:20	34.9	34.9	34.9	73	27.1	0	2	270	0.00	29.959 
23:25	35.2	35.2	35.2	73	27.4	0	3	270	0.00	29.959 
23:30	35.5	35.5	35.5	74	28.0	1	3	270	0.00	29.958 
23:35	35.6	35.6	35.6	73	27.8	0	1	270	0.00	29.958 
23:40	35.8	35.8	35.8	73	28.0	0	2	270	0.00	29.958 
23:45	35.9	35.9	35.9	73	28.1	0	2	270	0.00	29.950 
23:50	36.0	36.0	36.0	73	28.2	1	3	270	0.00	29.950 
23:55	36.3	36.3	36.3	73	28.5	1	3	270	0.00	29.950 

CoCoRaHS
IN-AL-39
A2 Web Hosting
Creative Commons License
GoDaddy
search engine by freefind advanced

loaded 2018-11-15 13:43:36 • last modified 2010-11-18 10:43:29
Privacy PolicyDisclaimer
• wx.awcolley.com is powered by PmWiki v.2002016 •
• all content (unless otherwise noted) © 2018 A W Colley